Time;durP1;ratioP1;P1;durP2;ratioP2;P2;SDS_P1;SDS_P2;PMS_P1;PMS_P2;Temp;Humidity;BMP_temperature;BMP_pressure;BME280_temperature;BME280_humidity;BME280_pressure;Samples;Min_cycle;Max_cycle;Signal;HPM_P1;HPM_P2
2021/03/15 00:00:41;;;;;;;19.48;4.63;;;3.30;94.30;;;;;;5000916;28;20034;-68
2021/03/15 00:03:07;;;;;;;12.95;3.92;;;3.30;94.30;;;;;;5002749;28;20407;-67
2021/03/15 00:05:32;;;;;;;19.55;3.53;;;3.40;94.20;;;;;;5005733;28;20030;-68
2021/03/15 00:07:58;;;;;;;20.63;4.15;;;3.50;94.10;;;;;;4998061;28;20029;-70
2021/03/15 00:10:24;;;;;;;18.90;4.95;;;3.60;94.10;;;;;;5003297;28;20038;-70
2021/03/15 00:12:49;;;;;;;27.50;4.60;;;3.60;94.10;;;;;;5006116;28;20037;-68
2021/03/15 00:15:19;;;;;;;16.30;4.22;;;3.60;94.20;;;;;;5005262;28;20427;-68
2021/03/15 00:17:45;;;;;;;25.00;4.80;;;3.60;94.50;;;;;;5001892;28;20452;-68
2021/03/15 00:20:14;;;;;;;19.77;4.28;;;3.60;94.60;;;;;;4988824;28;20109;-68
2021/03/15 00:22:40;;;;;;;19.88;4.45;;;3.50;94.50;;;;;;5003776;28;20605;-68
2021/03/15 00:25:08;;;;;;;13.32;3.88;;;3.50;94.40;;;;;;5003364;28;20480;-68
2021/03/15 00:27:34;;;;;;;15.77;3.65;;;3.40;94.40;;;;;;4999367;28;20057;-68
2021/03/15 00:30:00;;;;;;;16.45;4.10;;;3.40;94.10;;;;;;5005052;28;20030;-70
2021/03/15 00:32:27;;;;;;;15.43;4.53;;;3.40;94.10;;;;;;5006990;28;20105;-68
2021/03/15 00:34:52;;;;;;;15.73;4.90;;;3.30;94.10;;;;;;5006086;28;20065;-68
2021/03/15 00:37:18;;;;;;;15.10;4.97;;;3.30;94.30;;;;;;5001612;28;20021;-68
2021/03/15 00:39:44;;;;;;;15.15;4.85;;;3.20;94.40;;;;;;4999654;28;20061;-70
2021/03/15 00:42:10;;;;;;;19.45;5.50;;;3.20;94.50;;;;;;5006333;28;20030;-68
2021/03/15 00:44:36;;;;;;;17.63;6.32;;;3.10;94.70;;;;;;5003358;28;20052;-68
2021/03/15 00:47:02;;;;;;;19.58;5.95;;;3.10;94.60;;;;;;5001699;28;20049;-68
2021/03/15 00:49:28;;;;;;;19.02;5.97;;;3.10;94.70;;;;;;5004128;28;20478;-67
2021/03/15 00:51:54;;;;;;;19.10;7.32;;;3.10;94.70;;;;;;4999674;28;20037;-70
2021/03/15 00:54:21;;;;;;;16.38;6.32;;;3.10;94.90;;;;;;5002353;28;20026;-68
2021/03/15 00:56:49;;;;;;;21.42;7.15;;;3.10;94.90;;;;;;5001706;28;20228;-68
2021/03/15 00:59:15;;;;;;;20.10;7.82;;;3.20;94.90;;;;;;5005188;28;20034;-70
2021/03/15 01:01:41;;;;;;;23.00;9.15;;;3.10;95.00;;;;;;5004944;28;20030;-67
2021/03/15 01:04:09;;;;;;;22.15;8.93;;;3.10;95.10;;;;;;5003375;28;20141;-68
2021/03/15 01:06:34;;;;;;;23.85;8.93;;;3.10;95.30;;;;;;5001888;28;20548;-67
2021/03/15 01:09:01;;;;;;;29.52;10.57;;;3.20;95.30;;;;;;5003039;28;20033;-69
2021/03/15 01:11:26;;;;;;;23.10;10.07;;;3.30;95.30;;;;;;5003776;28;20084;-68
2021/03/15 01:13:53;;;;;;;27.38;9.45;;;3.40;95.20;;;;;;5004318;28;20546;-69
2021/03/15 01:16:19;;;;;;;24.17;8.57;;;3.40;95.20;;;;;;5003581;28;20060;-68
2021/03/15 01:18:45;;;;;;;29.75;9.00;;;3.40;95.10;;;;;;4997017;28;20083;-68
2021/03/15 01:21:13;;;;;;;21.60;8.25;;;3.40;95.20;;;;;;5002683;28;20032;-70
2021/03/15 01:23:38;;;;;;;22.27;7.45;;;3.50;95.10;;;;;;4999506;28;20382;-70
2021/03/15 01:26:05;;;;;;;29.00;7.07;;;3.50;95.00;;;;;;4997685;28;20014;-68
2021/03/15 01:28:30;;;;;;;22.85;6.60;;;3.50;95.00;;;;;;5001050;28;20026;-68
2021/03/15 01:30:56;;;;;;;16.75;5.97;;;3.40;95.00;;;;;;5002112;28;20072;-68
2021/03/15 01:33:22;;;;;;;22.80;6.10;;;3.40;95.10;;;;;;5000017;28;20403;-69
2021/03/15 01:35:48;;;;;;;18.95;5.88;;;3.40;95.10;;;;;;5000181;28;20068;-68
2021/03/15 01:38:14;;;;;;;17.48;4.80;;;3.40;95.10;;;;;;4985236;28;20040;-68
2021/03/15 01:40:40;;;;;;;25.88;6.35;;;3.40;95.10;;;;;;5004469;28;20497;-69
2021/03/15 01:43:06;;;;;;;16.38;4.25;;;3.40;95.10;;;;;;5003732;28;20022;-69
2021/03/15 01:45:33;;;;;;;20.63;5.57;;;3.40;95.20;;;;;;5004045;28;20478;-67
2021/03/15 01:47:58;;;;;;;27.55;5.95;;;3.40;95.20;;;;;;5003664;28;20033;-67
2021/03/15 01:50:25;;;;;;;17.45;5.47;;;3.40;95.10;;;;;;5004254;28;20030;-67
2021/03/15 01:52:52;;;;;;;18.38;4.97;;;3.40;95.10;;;;;;4998073;28;20120;-67
2021/03/15 01:55:19;;;;;;;17.35;4.78;;;3.30;95.10;;;;;;4997748;28;20458;-66
2021/03/15 01:57:48;;;;;;;30.08;5.22;;;3.20;95.20;;;;;;5002842;28;20072;-67
2021/03/15 02:00:16;;;;;;;21.88;5.75;;;3.20;95.20;;;;;;4998668;28;20061;-67
2021/03/15 02:02:45;;;;;;;22.13;4.95;;;3.20;95.30;;;;;;5005649;28;20461;-68
2021/03/15 02:05:12;;;;;;;22.90;6.47;;;3.20;95.30;;;;;;5002602;28;20478;-67
2021/03/15 02:07:38;;;;;;;19.40;4.85;;;3.20;95.20;;;;;;5006166;28;20033;-67
2021/03/15 02:10:05;;;;;;;19.33;5.85;;;3.20;95.20;;;;;;4997877;28;20385;-67
2021/03/15 02:12:49;;;;;;;20.98;4.75;;;3.20;95.30;;;;;;5006427;28;20030;-67
2021/03/15 02:15:57;;;;;;;14.70;4.85;;;3.20;95.30;;;;;;5001916;28;20048;-66
2021/03/15 02:18:47;;;;;;;27.10;5.38;;;3.30;95.10;;;;;;4950956;28;20054;-67
2021/03/15 02:21:47;;;;;;;19.73;4.88;;;3.40;95.00;;;;;;4996055;28;22438;-67
2021/03/15 02:24:57;;;;;;;17.48;4.85;;;3.40;95.00;;;;;;4996688;28;20549;-67
2021/03/15 02:27:48;;;;;;;17.20;5.00;;;3.40;95.20;;;;;;4973542;28;20054;-67
2021/03/15 02:30:35;;;;;;;14.75;5.13;;;3.40;95.10;;;;;;4988652;28;20030;-68
2021/03/15 02:33:22;;;;;;;19.05;5.90;;;3.40;95.10;;;;;;5002446;28;20037;-67
2021/03/15 02:35:49;;;;;;;20.30;5.22;;;3.40;95.20;;;;;;5007311;28;20034;-68
2021/03/15 02:38:16;;;;;;;19.85;5.95;;;3.40;95.20;;;;;;5006170;28;20030;-68
2021/03/15 02:40:48;;;;;;;16.77;6.20;;;3.40;95.20;;;;;;5009529;28;20038;-67
2021/03/15 02:43:47;;;;;;;14.73;6.35;;;3.40;95.20;;;;;;5002509;28;20189;-67
2021/03/15 02:46:19;;;;;;;13.77;6.70;;;3.40;95.10;;;;;;4994685;28;20069;-70
2021/03/15 02:48:46;;;;;;;17.77;7.18;;;3.40;94.90;;;;;;5004138;28;20406;-67
2021/03/15 02:51:13;;;;;;;17.27;7.82;;;3.40;94.90;;;;;;5005035;28;21911;-68
2021/03/15 02:53:43;;;;;;;17.98;7.65;;;3.50;94.80;;;;;;5001839;28;20030;-68
2021/03/15 02:56:15;;;;;;;23.27;8.38;;;3.50;94.70;;;;;;5007981;28;20087;-69
2021/03/15 02:58:42;;;;;;;15.95;7.90;;;3.50;94.70;;;;;;5005145;28;20061;-67
2021/03/15 03:01:08;;;;;;;17.30;7.50;;;3.50;94.80;;;;;;4996077;28;20122;-68
2021/03/15 03:03:36;;;;;;;23.35;7.90;;;3.50;94.80;;;;;;5008010;28;20134;-67
2021/03/15 03:06:03;;;;;;;19.30;7.82;;;3.50;94.60;;;;;;5011044;28;20034;-68
2021/03/15 03:08:30;;;;;;;18.55;8.23;;;3.50;94.70;;;;;;5001749;28;20109;-69
2021/03/15 03:10:57;;;;;;;17.73;7.72;;;3.50;94.80;;;;;;5006662;28;20030;-68
2021/03/15 03:13:25;;;;;;;22.38;7.50;;;3.50;94.70;;;;;;5006707;28;20402;-68
2021/03/15 03:15:51;;;;;;;22.73;8.20;;;3.50;94.70;;;;;;5009098;28;20022;-67
2021/03/15 03:18:20;;;;;;;20.88;7.85;;;3.50;94.70;;;;;;5000387;28;20033;-69
2021/03/15 03:20:56;;;;;;;17.30;8.23;;;3.50;94.60;;;;;;5005845;28;20033;-67
2021/03/15 03:23:24;;;;;;;17.17;8.35;;;3.50;94.70;;;;;;5003197;28;20091;-69
2021/03/15 03:25:53;;;;;;;14.75;8.30;;;3.50;94.80;;;;;;5006970;28;20038;-69
2021/03/15 03:28:20;;;;;;;13.18;8.23;;;3.50;94.70;;;;;;5002873;28;20038;-67
2021/03/15 03:30:46;;;;;;;18.90;7.78;;;3.60;94.50;;;;;;5004040;28;20030;-67
2021/03/15 03:33:13;;;;;;;18.27;8.55;;;3.50;94.40;;;;;;5007168;28;20117;-67
2021/03/15 03:35:40;;;;;;;20.30;9.02;;;3.40;94.50;;;;;;5020781;28;20452;-68
2021/03/15 03:38:06;;;;;;;23.42;9.70;;;3.30;94.60;;;;;;5003845;28;20517;-69
2021/03/15 03:40:32;;;;;;;16.92;9.68;;;3.30;94.90;;;;;;5003169;28;20053;-67
2021/03/15 03:42:57;;;;;;;26.23;10.20;;;3.30;95.00;;;;;;5009570;28;20041;-67
2021/03/15 03:45:23;;;;;;;23.17;9.90;;;3.40;95.10;;;;;;5007276;28;20030;-67
2021/03/15 03:47:49;;;;;;;18.58;10.98;;;3.40;95.00;;;;;;5005168;28;20022;-68
2021/03/15 03:50:20;;;;;;;24.70;11.70;;;3.50;95.00;;;;;;5001822;28;20026;-67
2021/03/15 03:52:57;;;;;;;16.00;10.38;;;3.50;95.00;;;;;;5005470;28;20034;-68
2021/03/15 03:55:33;;;;;;;21.42;11.23;;;3.50;94.90;;;;;;5006568;28;20056;-68
2021/03/15 03:58:01;;;;;;;20.00;11.13;;;3.50;94.90;;;;;;5003290;28;20034;-67
2021/03/15 04:00:27;;;;;;;17.60;10.63;;;3.50;94.90;;;;;;5000257;28;20065;-69
2021/03/15 04:03:08;;;;;;;21.45;11.43;;;3.50;94.90;;;;;;5008487;28;20042;-69
2021/03/15 04:05:34;;;;;;;19.92;10.75;;;3.50;94.80;;;;;;5006659;28;20668;-68
2021/03/15 04:08:08;;;;;;;19.95;10.07;;;3.60;94.60;;;;;;4997541;28;20030;-68
2021/03/15 04:10:36;;;;;;;22.38;10.70;;;3.50;94.50;;;;;;5005195;28;20033;-68
2021/03/15 04:13:12;;;;;;;19.50;9.80;;;3.50;94.40;;;;;;5008567;28;20107;-68
2021/03/15 04:15:45;;;;;;;15.20;9.13;;;3.50;94.40;;;;;;5019369;28;20609;-68
2021/03/15 04:18:16;;;;;;;16.65;9.00;;;3.50;94.30;;;;;;5003334;28;20168;-68
2021/03/15 04:20:44;;;;;;;17.60;8.90;;;3.50;94.30;;;;;;5002694;28;20514;-70
2021/03/15 04:23:15;;;;;;;14.77;8.95;;;3.60;94.10;;;;;;5007407;28;20037;-68
2021/03/15 04:25:42;;;;;;;15.02;9.45;;;3.60;93.90;;;;;;4996895;28;20116;-70
2021/03/15 04:28:09;;;;;;;12.77;7.13;;;3.60;94.20;;;;;;5003149;28;20526;-68
2021/03/15 04:30:37;;;;;;;14.75;6.75;;;3.50;93.90;;;;;;5004277;28;20076;-68
2021/03/15 04:33:03;;;;;;;13.57;7.30;;;3.50;93.60;;;;;;5004464;28;20033;-68
2021/03/15 04:35:31;;;;;;;11.45;6.72;;;3.50;93.70;;;;;;5001826;28;20386;-69
2021/03/15 04:38:02;;;;;;;12.15;6.50;;;3.50;93.80;;;;;;4996268;28;20033;-68
2021/03/15 04:40:30;;;;;;;9.73;5.93;;;3.50;93.60;;;;;;5003083;28;20073;-68
2021/03/15 04:43:01;;;;;;;8.82;5.20;;;3.50;93.60;;;;;;4996704;28;20030;-69
2021/03/15 04:45:28;;;;;;;10.57;4.82;;;3.50;93.30;;;;;;5004086;28;20442;-68
2021/03/15 04:47:55;;;;;;;10.25;5.07;;;3.50;93.30;;;;;;5002092;28;20394;-69
2021/03/15 04:50:22;;;;;;;9.18;4.88;;;3.50;93.30;;;;;;5000663;28;20061;-68
2021/03/15 04:52:48;;;;;;;10.73;4.90;;;3.50;93.10;;;;;;5006811;28;20497;-67
2021/03/15 04:55:14;;;;;;;9.55;4.72;;;3.40;93.40;;;;;;5005744;28;20069;-68
2021/03/15 04:57:41;;;;;;;9.73;4.35;;;3.40;93.50;;;;;;5001382;28;20250;-68
2021/03/15 05:00:12;;;;;;;13.02;4.68;;;3.40;93.40;;;;;;4995550;28;20022;-69
2021/03/15 05:02:39;;;;;;;8.67;4.10;;;3.40;93.40;;;;;;5005635;28;20034;-68
2021/03/15 05:05:07;;;;;;;9.52;4.40;;;3.40;93.50;;;;;;5006881;28;20029;-67
2021/03/15 05:07:34;;;;;;;9.27;4.25;;;3.30;93.60;;;;;;5004829;28;20120;-67
2021/03/15 05:10:02;;;;;;;7.90;4.53;;;3.40;93.40;;;;;;5000904;28;20525;-67
2021/03/15 05:12:28;;;;;;;7.60;4.38;;;3.40;93.40;;;;;;5007953;28;20268;-68
2021/03/15 05:14:56;;;;;;;8.50;4.03;;;3.40;93.50;;;;;;5001736;28;20022;-67
2021/03/15 05:17:22;;;;;;;9.00;4.53;;;3.50;93.20;;;;;;4996669;28;20037;-67
2021/03/15 05:19:48;;;;;;;7.88;4.70;;;3.40;93.50;;;;;;5005877;28;20079;-68
2021/03/15 05:22:14;;;;;;;10.02;5.32;;;3.40;93.60;;;;;;5006920;28;20112;-68
2021/03/15 05:24:40;;;;;;;13.07;6.43;;;3.40;93.70;;;;;;4997182;28;20144;-67
2021/03/15 05:27:07;;;;;;;12.68;7.22;;;3.50;93.60;;;;;;5001799;28;20022;-67
2021/03/15 05:29:34;;;;;;;11.18;6.43;;;3.40;93.60;;;;;;5002092;28;20030;-67
2021/03/15 05:32:01;;;;;;;12.77;7.38;;;3.50;93.60;;;;;;4990745;28;20030;-68
2021/03/15 05:34:29;;;;;;;11.95;7.70;;;3.50;93.50;;;;;;4994972;28;20109;-67
2021/03/15 05:36:57;;;;;;;14.55;9.45;;;3.50;93.70;;;;;;5004990;28;20383;-67
2021/03/15 05:39:23;;;;;;;13.27;9.32;;;3.50;93.80;;;;;;5000487;28;20038;-67
2021/03/15 05:42:04;;;;;;;17.25;10.85;;;3.50;93.80;;;;;;5006217;28;20486;-68
2021/03/15 05:44:42;;;;;;;20.13;11.00;;;3.50;94.10;;;;;;5002698;28;20030;-68
2021/03/15 05:47:29;;;;;;;17.55;10.23;;;3.50;94.00;;;;;;4995343;28;20563;-67
2021/03/15 05:50:22;;;;;;;17.25;9.93;;;3.50;94.20;;;;;;4998295;28;20046;-69
2021/03/15 05:53:18;;;;;;;13.27;9.32;;;3.50;94.00;;;;;;5004791;28;20118;-67
2021/03/15 05:56:02;;;;;;;15.77;9.65;;;3.60;94.00;;;;;;4988695;28;20034;-68
2021/03/15 05:58:57;;;;;;;14.77;8.15;;;3.60;94.00;;;;;;4980890;28;20478;-69
2021/03/15 06:01:40;;;;;;;17.20;8.18;;;3.60;94.00;;;;;;4983404;28;20070;-68
2021/03/15 06:04:35;;;;;;;16.30;7.65;;;3.60;93.90;;;;;;5005089;28;20017;-68
2021/03/15 06:07:06;;;;;;;12.60;6.22;;;3.60;93.90;;;;;;4995208;28;20058;-69
2021/03/15 06:09:57;;;;;;;13.98;5.78;;;3.70;93.70;;;;;;5000225;28;20034;-68
2021/03/15 06:12:28;;;;;;;19.03;5.83;;;3.70;93.60;;;;;;4985180;28;20065;-68
2021/03/15 06:14:54;;;;;;;9.52;5.35;;;3.70;93.50;;;;;;4993133;28;20030;-69
2021/03/15 06:17:21;;;;;;;13.95;6.15;;;3.80;93.50;;;;;;4993007;28;20505;-69
2021/03/15 06:19:48;;;;;;;13.88;6.25;;;3.70;93.60;;;;;;4993933;28;20113;-69
2021/03/15 06:22:15;;;;;;;13.07;5.53;;;3.80;93.60;;;;;;4987350;28;20222;-70
2021/03/15 06:24:41;;;;;;;12.82;5.80;;;3.80;93.40;;;;;;4982552;28;20323;-68
2021/03/15 06:27:09;;;;;;;14.15;6.20;;;3.80;93.50;;;;;;4977948;28;20100;-68
2021/03/15 06:29:35;;;;;;;11.73;5.30;;;3.80;93.30;;;;;;4981132;28;20412;-69
2021/03/15 06:32:01;;;;;;;14.10;5.40;;;3.90;93.20;;;;;;4981618;28;20034;-70
2021/03/15 06:34:29;;;;;;;14.13;6.10;;;3.90;92.90;;;;;;4985573;28;20041;-69
2021/03/15 06:36:56;;;;;;;10.43;4.88;;;4.00;93.10;;;;;;4986074;28;20155;-70
2021/03/15 06:39:22;;;;;;;12.50;5.40;;;4.10;93.00;;;;;;4983975;28;20044;-69
2021/03/15 06:41:54;;;;;;;13.25;6.30;;;4.10;92.50;;;;;;4983600;28;20080;-70
2021/03/15 06:44:20;;;;;;;13.32;5.45;;;4.20;92.80;;;;;;4983611;28;20026;-67
2021/03/15 06:46:46;;;;;;;9.70;4.95;;;4.20;92.60;;;;;;4982287;28;20171;-69
2021/03/15 06:49:11;;;;;;;12.93;5.00;;;4.20;92.20;;;;;;4991817;28;20394;-69
2021/03/15 06:51:37;;;;;;;9.10;5.05;;;4.20;92.10;;;;;;4999532;28;20030;-68
2021/03/15 06:54:03;;;;;;;11.18;5.25;;;4.20;92.10;;;;;;5001434;28;20034;-68
2021/03/15 06:56:28;;;;;;;12.05;5.75;;;4.20;92.20;;;;;;4982472;28;20092;-69
2021/03/15 06:58:57;;;;;;;11.15;5.40;;;4.20;92.40;;;;;;4982406;28;20041;-69
2021/03/15 07:01:27;;;;;;;12.93;5.50;;;4.20;92.40;;;;;;4984493;28;20065;-69
2021/03/15 07:04:06;;;;;;;12.65;6.38;;;4.20;92.30;;;;;;4983937;28;20117;-70
2021/03/15 07:06:42;;;;;;;17.92;5.70;;;4.30;92.30;;;;;;4982262;28;20030;-71
2021/03/15 07:09:17;;;;;;;11.85;5.90;;;4.30;92.20;;;;;;4983592;28;20030;-70
2021/03/15 07:11:43;;;;;;;12.82;5.70;;;4.40;92.40;;;;;;4982789;28;20038;-70
2021/03/15 07:14:25;;;;;;;11.43;5.93;;;4.30;92.30;;;;;;4967413;28;20031;-69
2021/03/15 07:16:59;;;;;;;11.80;6.28;;;4.20;92.80;;;;;;4983501;28;20033;-69
2021/03/15 07:19:25;;;;;;;11.65;5.80;;;4.30;92.90;;;;;;5000588;28;20462;-69
2021/03/15 07:21:50;;;;;;;11.23;5.15;;;4.30;92.90;;;;;;4996104;28;20038;-68
2021/03/15 07:24:17;;;;;;;16.05;5.57;;;4.30;92.80;;;;;;5005684;28;20026;-68
2021/03/15 07:26:44;;;;;;;16.23;6.20;;;4.20;93.20;;;;;;5006841;28;20116;-69
2021/03/15 07:29:18;;;;;;;18.35;6.70;;;4.30;93.10;;;;;;5004332;28;20026;-68
2021/03/15 07:31:48;;;;;;;11.70;6.32;;;4.30;93.40;;;;;;5001321;28;20038;-69
2021/03/15 07:34:19;;;;;;;17.77;7.63;;;4.30;93.20;;;;;;5005681;28;20622;-68
2021/03/15 07:36:59;;;;;;;13.23;6.72;;;4.30;93.40;;;;;;5002844;28;20026;-67
2021/03/15 07:39:29;;;;;;;15.98;7.68;;;4.30;93.60;;;;;;4994275;28;20034;-69
2021/03/15 07:41:57;;;;;;;15.07;8.32;;;4.20;93.70;;;;;;5006204;28;20034;-68
2021/03/15 07:44:25;;;;;;;16.55;7.50;;;4.30;93.60;;;;;;5001761;28;20022;-69
2021/03/15 07:46:53;;;;;;;16.58;8.10;;;4.30;93.50;;;;;;5007749;28;20035;-67
2021/03/15 07:49:36;;;;;;;14.75;8.55;;;4.30;93.30;;;;;;5005144;28;20025;-68
2021/03/15 07:52:12;;;;;;;14.02;8.02;;;4.30;93.50;;;;;;5007705;28;20509;-68
2021/03/15 07:54:42;;;;;;;13.77;7.40;;;4.30;93.20;;;;;;5001767;28;20044;-69
2021/03/15 07:57:17;;;;;;;16.77;8.25;;;4.30;93.30;;;;;;5005266;28;20489;-69
2021/03/15 07:59:44;;;;;;;17.63;7.65;;;4.40;93.30;;;;;;5002737;28;20041;-68
2021/03/15 08:02:15;;;;;;;15.82;7.05;;;4.50;93.50;;;;;;5000701;28;20466;-69
2021/03/15 08:04:41;;;;;;;;;;;4.40;93.40;;;;;;5007913;28;20058;-68
2021/03/15 08:07:07;;;;;;;15.35;7.20;;;4.40;93.50;;;;;;4996114;28;19955;-69
2021/03/15 08:09:33;;;;;;;19.02;7.55;;;4.40;93.50;;;;;;5007669;28;20379;-68
2021/03/15 08:12:01;;;;;;;17.67;7.25;;;4.50;93.80;;;;;;4996216;28;20049;-68
2021/03/15 08:14:28;;;;;;;17.85;7.47;;;4.50;93.90;;;;;;5007091;28;20029;-68
2021/03/15 08:16:57;;;;;;;14.70;7.18;;;4.50;93.80;;;;;;5007558;28;20083;-68
2021/03/15 08:19:24;;;;;;;13.63;6.63;;;4.60;93.80;;;;;;4988489;28;20648;-68
2021/03/15 08:21:50;;;;;;;14.77;7.47;;;4.50;93.90;;;;;;5008712;28;20041;-68
2021/03/15 08:24:16;;;;;;;15.55;5.95;;;4.60;93.80;;;;;;4997047;28;20034;-68
2021/03/15 08:26:46;;;;;;;15.75;6.65;;;4.60;93.80;;;;;;5007456;28;20038;-68
2021/03/15 08:29:14;;;;;;;18.40;6.95;;;4.70;93.80;;;;;;5001505;28;20419;-68
2021/03/15 08:31:44;;;;;;;18.95;6.15;;;4.70;93.80;;;;;;5003870;28;20026;-69
2021/03/15 08:34:12;;;;;;;20.38;7.10;;;4.70;94.20;;;;;;5005000;28;20033;-69
2021/03/15 08:36:43;;;;;;;22.95;7.10;;;4.70;94.60;;;;;;5007823;28;20034;-69
2021/03/15 08:39:27;;;;;;;14.55;6.35;;;4.70;94.60;;;;;;5006943;28;20446;-68
2021/03/15 08:42:13;;;;;;;15.38;5.93;;;4.80;94.80;;;;;;5006213;28;20553;-68
2021/03/15 08:44:39;;;;;;;10.20;4.43;;;4.80;94.60;;;;;;5005850;28;20033;-69
2021/03/15 08:47:05;;;;;;;14.52;4.53;;;5.00;94.40;;;;;;5003759;28;20029;-67
2021/03/15 08:49:32;;;;;;;12.80;4.03;;;5.10;94.30;;;;;;5005176;28;20025;-70
2021/03/15 08:51:57;;;;;;;9.75;3.67;;;5.10;94.00;;;;;;4986705;28;20040;-68
2021/03/15 08:54:39;;;;;;;6.72;3.05;;;5.10;93.70;;;;;;5004275;28;20034;-68
2021/03/15 08:57:06;;;;;;;9.30;3.00;;;5.10;93.50;;;;;;5002521;28;20041;-68
2021/03/15 08:59:33;;;;;;;9.05;2.88;;;5.20;93.40;;;;;;5001674;28;20472;-68
2021/03/15 09:02:05;;;;;;;7.53;2.70;;;5.20;92.90;;;;;;5007753;28;20033;-68
2021/03/15 09:04:39;;;;;;;5.97;1.65;;;5.30;93.20;;;;;;5005277;28;20025;-68
2021/03/15 09:07:29;;;;;;;4.53;1.38;;;5.30;92.10;;;;;;5005106;28;20053;-68
2021/03/15 09:09:55;;;;;;;4.93;1.75;;;5.20;91.80;;;;;;5004875;28;20030;-69
2021/03/15 09:12:21;;;;;;;7.80;1.45;;;5.20;91.80;;;;;;5007788;28;20041;-67
2021/03/15 09:14:57;;;;;;;4.50;1.30;;;5.30;91.90;;;;;;5001002;28;20034;-68
2021/03/15 09:17:22;;;;;;;6.47;1.20;;;5.40;91.20;;;;;;4999534;28;20038;-70
2021/03/15 09:19:49;;;;;;;7.07;1.65;;;5.50;90.70;;;;;;5002814;28;20537;-69
2021/03/15 09:22:23;;;;;;;3.00;1.20;;;5.60;91.00;;;;;;5004685;28;20238;-68
2021/03/15 09:25:03;;;;;;;6.85;2.03;;;5.90;91.10;;;;;;5001551;28;20022;-68
2021/03/15 09:27:37;;;;;;;5.95;1.70;;;5.80;90.00;;;;;;5004874;28;20037;-69
2021/03/15 09:30:13;;;;;;;7.68;1.95;;;6.00;91.10;;;;;;5004782;28;20037;-68
2021/03/15 09:32:41;;;;;;;5.50;1.55;;;5.90;90.60;;;;;;4996316;28;20041;-68
2021/03/15 09:35:16;;;;;;;6.90;1.50;;;5.90;90.60;;;;;;5008634;28;20161;-68
2021/03/15 09:37:46;;;;;;;8.20;1.88;;;5.80;90.30;;;;;;5004280;28;20125;-66
2021/03/15 09:40:13;;;;;;;7.57;2.22;;;5.70;90.30;;;;;;5006133;28;20503;-68
2021/03/15 09:42:43;;;;;;;10.98;2.05;;;5.80;91.10;;;;;;5005110;28;20069;-68
2021/03/15 09:45:14;;;;;;;11.65;2.13;;;5.90;90.40;;;;;;5002538;28;20030;-69
2021/03/15 09:47:39;;;;;;;7.18;1.75;;;6.20;89.80;;;;;;5002778;28;20576;-69
2021/03/15 09:50:20;;;;;;;12.40;2.42;;;6.30;88.80;;;;;;5005480;28;20274;-68
2021/03/15 09:52:46;;;;;;;10.73;2.30;;;6.50;89.10;;;;;;5005116;28;20029;-68
2021/03/15 09:55:12;;;;;;;8.57;1.67;;;6.60;88.60;;;;;;5004765;28;20060;-68
2021/03/15 09:57:37;;;;;;;11.30;2.03;;;6.60;88.60;;;;;;5002319;28;20498;-68
2021/03/15 10:00:09;;;;;;;8.88;1.98;;;6.70;87.40;;;;;;5002645;28;20119;-67
2021/03/15 10:02:34;;;;;;;8.52;2.08;;;6.70;86.60;;;;;;5004711;28;20026;-68
2021/03/15 10:05:00;;;;;;;10.07;2.25;;;6.80;86.20;;;;;;5002032;28;20042;-69
2021/03/15 10:07:26;;;;;;;11.52;1.85;;;6.90;86.30;;;;;;5005165;28;20079;-69
2021/03/15 10:09:51;;;;;;;7.57;1.40;;;6.70;85.10;;;;;;5006855;28;20169;-68
2021/03/15 10:12:19;;;;;;;7.20;1.65;;;6.80;85.10;;;;;;5006664;28;20073;-69
2021/03/15 10:14:44;;;;;;;7.20;1.77;;;6.70;85.40;;;;;;5004994;28;20075;-69
2021/03/15 10:17:18;;;;;;;8.15;1.60;;;6.70;84.50;;;;;;4985328;28;20030;-68
2021/03/15 10:19:44;;;;;;;17.52;2.22;;;6.80;86.20;;;;;;5004448;28;20520;-69
2021/03/15 10:22:10;;;;;;;10.23;1.60;;;7.10;86.30;;;;;;4995846;28;20034;-70
2021/03/15 10:24:38;;;;;;;12.00;2.90;;;7.30;85.20;;;;;;5005107;28;20387;-69
2021/03/15 10:27:06;;;;;;;12.95;2.30;;;7.30;85.10;;;;;;5005728;28;20026;-69
2021/03/15 10:29:32;;;;;;;10.00;2.42;;;7.20;85.80;;;;;;5002393;28;20063;-69
2021/03/15 10:32:06;;;;;;;13.65;2.30;;;7.50;86.40;;;;;;4973449;28;20503;-69
2021/03/15 10:34:32;;;;;;;15.85;2.60;;;7.50;87.30;;;;;;5002178;28;20466;-69
2021/03/15 10:36:58;;;;;;;13.38;2.25;;;7.00;86.00;;;;;;5020510;28;20483;-68
2021/03/15 10:39:25;;;;;;;14.45;2.33;;;6.70;86.10;;;;;;4999786;28;20030;-68
2021/03/15 10:41:52;;;;;;;14.73;2.50;;;6.60;88.20;;;;;;5003183;28;20023;-68
2021/03/15 10:44:23;;;;;;;8.13;1.27;;;6.50;89.90;;;;;;5003934;28;20029;-69
2021/03/15 10:46:54;;;;;;;7.05;1.33;;;5.60;88.70;;;;;;5004940;28;20022;-69
2021/03/15 10:49:24;;;;;;;;;;;4.70;91.00;;;;;;4999242;28;20080;-68
2021/03/15 10:51:52;;;;;;;6.45;1.42;;;4.70;92.30;;;;;;5003989;28;19913;-69
2021/03/15 10:54:39;;;;;;;8.82;1.45;;;4.90;92.70;;;;;;5004616;28;20433;-69
2021/03/15 10:57:14;;;;;;;8.13;1.92;;;5.10;92.30;;;;;;4997938;28;20026;-69
2021/03/15 10:59:41;;;;;;;6.45;1.65;;;5.60;91.80;;;;;;5002421;28;20056;-69
2021/03/15 11:02:07;;;;;;;7.78;1.50;;;5.80;90.20;;;;;;5007767;28;20036;-68
2021/03/15 11:04:41;;;;;;;9.90;1.92;;;5.90;90.80;;;;;;5008961;28;20100;-68
2021/03/15 11:07:35;;;;;;;7.50;1.55;;;5.90;90.60;;;;;;5004119;28;20199;-69
2021/03/15 11:10:27;;;;;;;9.50;1.88;;;5.60;90.50;;;;;;5004507;28;20510;-69
2021/03/15 11:12:54;;;;;;;11.52;2.15;;;5.40;90.30;;;;;;5009293;28;20041;-68
2021/03/15 11:15:29;;;;;;;8.95;1.80;;;5.30;91.20;;;;;;5007565;28;20040;-69
2021/03/15 11:18:22;;;;;;;8.45;1.48;;;5.60;91.40;;;;;;4999392;28;20140;-69
2021/03/15 11:20:57;;;;;;;11.32;1.85;;;6.10;92.10;;;;;;5000745;28;20099;-68
2021/03/15 11:23:33;;;;;;;12.77;2.42;;;6.30;89.90;;;;;;5020348;28;20068;-69
2021/03/15 11:26:08;;;;;;;9.18;2.13;;;6.20;90.70;;;;;;5004758;28;20478;-69
2021/03/15 11:28:42;;;;;;;10.43;1.95;;;6.20;89.60;;;;;;5000118;28;20520;-69
2021/03/15 11:31:20;;;;;;;15.18;2.45;;;6.20;89.10;;;;;;5006938;28;20088;-68
2021/03/15 11:33:57;;;;;;;20.88;2.55;;;6.40;90.10;;;;;;5006627;28;20498;-68
2021/03/15 11:36:25;;;;;;;12.07;2.70;;;6.20;89.50;;;;;;4986757;28;20406;-68
2021/03/15 11:38:55;;;;;;;9.43;2.50;;;6.10;89.20;;;;;;5001990;28;20029;-68
2021/03/15 11:41:22;;;;;;;13.40;2.00;;;6.10;88.00;;;;;;5007115;28;20057;-69
2021/03/15 11:43:48;;;;;;;13.55;2.25;;;6.60;87.60;;;;;;5005906;28;20029;-69
2021/03/15 11:46:15;;;;;;;12.65;2.83;;;7.00;86.20;;;;;;5001241;28;20045;-69
2021/03/15 11:48:41;;;;;;;8.68;2.35;;;7.30;85.90;;;;;;5000933;28;20510;-68
2021/03/15 11:51:09;;;;;;;17.13;2.40;;;7.30;85.70;;;;;;5004545;28;20482;-69
2021/03/15 11:53:34;;;;;;;15.70;3.38;;;7.80;85.40;;;;;;5000547;28;20030;-70
2021/03/15 11:56:00;;;;;;;17.00;2.72;;;8.10;83.30;;;;;;5008917;28;20099;-69
2021/03/15 11:58:26;;;;;;;15.57;2.60;;;7.90;83.80;;;;;;5004189;28;20033;-69
2021/03/15 12:00:51;;;;;;;15.38;2.33;;;7.80;83.90;;;;;;4997473;28;20041;-69
2021/03/15 12:03:17;;;;;;;10.13;2.33;;;7.30;84.70;;;;;;5008699;28;20033;-69
2021/03/15 12:05:43;;;;;;;21.40;3.72;;;7.20;86.20;;;;;;4974215;28;20033;-67
2021/03/15 12:08:08;;;;;;;18.98;2.75;;;7.10;85.70;;;;;;4999813;28;20022;-69
2021/03/15 12:10:34;;;;;;;17.77;2.80;;;7.00;85.90;;;;;;5003342;28;20041;-69
2021/03/15 12:13:00;;;;;;;6.50;1.80;;;6.80;84.60;;;;;;5000685;28;20033;-69
2021/03/15 12:15:26;;;;;;;15.05;2.70;;;6.70;84.20;;;;;;5003205;28;20121;-68
2021/03/15 12:17:51;;;;;;;13.55;2.08;;;6.50;86.50;;;;;;5005252;28;20391;-68
2021/03/15 12:20:17;;;;;;;9.95;1.98;;;6.50;87.60;;;;;;4995775;28;20109;-69
2021/03/15 12:22:43;;;;;;;12.07;2.83;;;6.30;88.20;;;;;;5007525;28;20136;-69
2021/03/15 12:25:09;;;;;;;13.30;2.35;;;6.10;87.20;;;;;;5003782;28;20057;-69
2021/03/15 12:27:35;;;;;;;15.73;2.72;;;6.20;88.50;;;;;;4996979;28;20030;-69
2021/03/15 12:30:01;;;;;;;16.13;2.70;;;6.00;88.40;;;;;;5002961;28;20018;-68
2021/03/15 12:32:26;;;;;;;7.68;1.77;;;5.70;88.80;;;;;;5004145;28;20399;-69
2021/03/15 12:34:52;;;;;;;9.25;2.28;;;5.60;89.90;;;;;;5007076;28;20034;-69
2021/03/15 12:37:19;;;;;;;11.77;1.98;;;5.40;90.40;;;;;;4997272;28;20030;-68
2021/03/15 12:39:47;;;;;;;10.65;2.00;;;5.40;91.40;;;;;;4988980;28;20092;-68
2021/03/15 12:42:13;;;;;;;11.75;1.90;;;5.40;91.30;;;;;;5002850;28;20491;-69
2021/03/15 12:44:39;;;;;;;7.60;1.65;;;5.50;91.30;;;;;;4997279;28;20031;-68
2021/03/15 12:47:05;;;;;;;11.10;1.60;;;5.60;90.00;;;;;;5000961;28;20104;-68
2021/03/15 12:49:30;;;;;;;14.52;2.10;;;5.80;90.60;;;;;;5004425;28;20057;-69
2021/03/15 12:51:56;;;;;;;7.90;1.80;;;6.10;90.50;;;;;;4989148;28;20054;-70
2021/03/15 12:54:22;;;;;;;6.15;1.70;;;6.30;89.70;;;;;;4991945;28;20029;-69
2021/03/15 12:56:47;;;;;;;14.48;2.53;;;6.10;89.30;;;;;;5001986;28;20099;-70
2021/03/15 12:59:13;;;;;;;12.35;1.95;;;6.10;89.90;;;;;;5000223;28;20036;-68
2021/03/15 13:01:39;;;;;;;8.60;1.40;;;6.00;90.10;;;;;;4996091;28;20056;-66